sensor_id;sensor_type;location;lat;lon;timestamp;P1;durP1;ratioP1;P2;durP2;ratioP2
22814;SDS011;11574;51.058;13.712;2024-03-08T00:03:44;35.83;;;16.73;;
22814;SDS011;11574;51.058;13.712;2024-03-08T00:08:47;30.20;;;16.10;;
22814;SDS011;11574;51.058;13.712;2024-03-08T00:13:51;37.57;;;16.30;;
22814;SDS011;11574;51.058;13.712;2024-03-08T00:18:53;29.30;;;15.70;;
22814;SDS011;11574;51.058;13.712;2024-03-08T00:23:57;29.57;;;15.53;;
22814;SDS011;11574;51.058;13.712;2024-03-08T00:28:59;25.87;;;14.97;;
22814;SDS011;11574;51.058;13.712;2024-03-08T00:34:01;27.93;;;15.80;;
22814;SDS011;11574;51.058;13.712;2024-03-08T00:39:05;33.47;;;17.03;;
22814;SDS011;11574;51.058;13.712;2024-03-08T00:44:07;33.27;;;16.63;;
22814;SDS011;11574;51.058;13.712;2024-03-08T00:49:10;32.13;;;17.20;;
22814;SDS011;11574;51.058;13.712;2024-03-08T00:54:13;29.83;;;15.80;;
22814;SDS011;11574;51.058;13.712;2024-03-08T00:59:16;33.47;;;16.43;;
22814;SDS011;11574;51.058;13.712;2024-03-08T01:04:18;35.17;;;17.87;;
22814;SDS011;11574;51.058;13.712;2024-03-08T01:09:22;31.87;;;16.50;;
22814;SDS011;11574;51.058;13.712;2024-03-08T01:14:25;36.13;;;16.23;;
22814;SDS011;11574;51.058;13.712;2024-03-08T01:19:27;32.83;;;16.93;;
22814;SDS011;11574;51.058;13.712;2024-03-08T01:24:33;32.83;;;16.67;;
22814;SDS011;11574;51.058;13.712;2024-03-08T01:29:36;30.50;;;16.47;;
22814;SDS011;11574;51.058;13.712;2024-03-08T01:34:38;31.87;;;16.17;;
22814;SDS011;11574;51.058;13.712;2024-03-08T01:39:41;28.80;;;16.03;;
22814;SDS011;11574;51.058;13.712;2024-03-08T01:44:43;37.10;;;17.83;;
22814;SDS011;11574;51.058;13.712;2024-03-08T01:49:46;30.97;;;16.30;;
22814;SDS011;11574;51.058;13.712;2024-03-08T01:54:50;31.37;;;17.07;;
22814;SDS011;11574;51.058;13.712;2024-03-08T01:59:52;32.50;;;17.23;;
22814;SDS011;11574;51.058;13.712;2024-03-08T02:04:55;37.17;;;16.77;;
22814;SDS011;11574;51.058;13.712;2024-03-08T02:09:59;34.27;;;18.40;;
22814;SDS011;11574;51.058;13.712;2024-03-08T02:15:01;36.03;;;18.13;;
22814;SDS011;11574;51.058;13.712;2024-03-08T02:20:04;33.70;;;18.43;;
22814;SDS011;11574;51.058;13.712;2024-03-08T02:25:10;36.93;;;18.43;;
22814;SDS011;11574;51.058;13.712;2024-03-08T02:30:13;40.40;;;18.83;;
22814;SDS011;11574;51.058;13.712;2024-03-08T02:35:17;34.60;;;17.57;;
22814;SDS011;11574;51.058;13.712;2024-03-08T02:40:21;33.57;;;17.63;;
22814;SDS011;11574;51.058;13.712;2024-03-08T02:45:23;38.37;;;18.53;;
22814;SDS011;11574;51.058;13.712;2024-03-08T02:50:25;36.80;;;18.73;;
22814;SDS011;11574;51.058;13.712;2024-03-08T02:55:30;35.90;;;19.13;;
22814;SDS011;11574;51.058;13.712;2024-03-08T03:00:33;38.93;;;19.27;;
22814;SDS011;11574;51.058;13.712;2024-03-08T03:05:35;42.73;;;20.13;;
22814;SDS011;11574;51.058;13.712;2024-03-08T03:10:39;36.67;;;18.33;;
22814;SDS011;11574;51.058;13.712;2024-03-08T03:15:41;38.67;;;18.50;;
22814;SDS011;11574;51.058;13.712;2024-03-08T03:20:43;38.77;;;19.13;;
22814;SDS011;11574;51.058;13.712;2024-03-08T03:25:47;43.03;;;18.23;;
22814;SDS011;11574;51.058;13.712;2024-03-08T03:30:49;37.23;;;17.83;;
22814;SDS011;11574;51.058;13.712;2024-03-08T03:35:53;37.03;;;17.33;;
22814;SDS011;11574;51.058;13.712;2024-03-08T03:40:56;35.30;;;17.23;;
22814;SDS011;11574;51.058;13.712;2024-03-08T03:46:05;36.20;;;17.33;;
22814;SDS011;11574;51.058;13.712;2024-03-08T03:51:08;35.10;;;17.57;;
22814;SDS011;11574;51.058;13.712;2024-03-08T03:56:12;38.90;;;16.93;;
22814;SDS011;11574;51.058;13.712;2024-03-08T04:01:15;36.17;;;18.53;;
22814;SDS011;11574;51.058;13.712;2024-03-08T04:06:17;38.43;;;17.80;;
22814;SDS011;11574;51.058;13.712;2024-03-08T04:11:20;34.47;;;17.83;;
22814;SDS011;11574;51.058;13.712;2024-03-08T04:16:23;31.47;;;16.77;;
22814;SDS011;11574;51.058;13.712;2024-03-08T04:21:26;38.93;;;18.17;;
22814;SDS011;11574;51.058;13.712;2024-03-08T04:26:29;37.00;;;17.47;;
22814;SDS011;11574;51.058;13.712;2024-03-08T04:31:31;33.43;;;17.03;;
22814;SDS011;11574;51.058;13.712;2024-03-08T04:36:33;35.07;;;18.20;;
22814;SDS011;11574;51.058;13.712;2024-03-08T04:41:37;35.77;;;17.00;;
22814;SDS011;11574;51.058;13.712;2024-03-08T04:46:39;35.30;;;16.67;;
22814;SDS011;11574;51.058;13.712;2024-03-08T04:51:42;30.93;;;16.93;;
22814;SDS011;11574;51.058;13.712;2024-03-08T04:56:46;42.50;;;17.70;;
22814;SDS011;11574;51.058;13.712;2024-03-08T05:01:48;39.43;;;17.87;;
22814;SDS011;11574;51.058;13.712;2024-03-08T05:06:51;37.17;;;18.87;;
22814;SDS011;11574;51.058;13.712;2024-03-08T05:11:55;45.45;;;21.98;;
22814;SDS011;11574;51.058;13.712;2024-03-08T05:16:58;33.07;;;17.53;;
22814;SDS011;11574;51.058;13.712;2024-03-08T05:22:00;29.90;;;16.13;;
22814;SDS011;11574;51.058;13.712;2024-03-08T05:27:04;37.73;;;17.00;;
22814;SDS011;11574;51.058;13.712;2024-03-08T05:32:06;35.00;;;16.67;;
22814;SDS011;11574;51.058;13.712;2024-03-08T05:37:10;31.10;;;16.57;;
22814;SDS011;11574;51.058;13.712;2024-03-08T05:42:13;35.73;;;17.30;;
22814;SDS011;11574;51.058;13.712;2024-03-08T05:47:15;36.13;;;17.23;;
22814;SDS011;11574;51.058;13.712;2024-03-08T05:52:18;34.83;;;17.10;;
22814;SDS011;11574;51.058;13.712;2024-03-08T05:57:22;37.77;;;17.80;;
22814;SDS011;11574;51.058;13.712;2024-03-08T06:02:24;35.80;;;17.93;;
22814;SDS011;11574;51.058;13.712;2024-03-08T06:07:26;34.53;;;17.73;;
22814;SDS011;11574;51.058;13.712;2024-03-08T06:12:31;37.33;;;18.10;;
22814;SDS011;11574;51.058;13.712;2024-03-08T06:17:38;33.67;;;17.77;;
22814;SDS011;11574;51.058;13.712;2024-03-08T06:22:40;39.77;;;18.20;;
22814;SDS011;11574;51.058;13.712;2024-03-08T06:27:44;36.90;;;17.63;;
22814;SDS011;11574;51.058;13.712;2024-03-08T06:32:46;40.60;;;18.37;;
22814;SDS011;11574;51.058;13.712;2024-03-08T06:37:49;40.50;;;18.00;;
22814;SDS011;11574;51.058;13.712;2024-03-08T06:42:52;37.67;;;18.70;;
22814;SDS011;11574;51.058;13.712;2024-03-08T06:47:55;38.07;;;19.00;;
22814;SDS011;11574;51.058;13.712;2024-03-08T06:52:57;37.50;;;18.13;;
22814;SDS011;11574;51.058;13.712;2024-03-08T06:58:00;39.93;;;19.00;;
22814;SDS011;11574;51.058;13.712;2024-03-08T07:03:03;41.37;;;19.20;;
22814;SDS011;11574;51.058;13.712;2024-03-08T07:08:06;34.43;;;18.13;;
22814;SDS011;11574;51.058;13.712;2024-03-08T07:13:10;36.27;;;16.67;;
22814;SDS011;11574;51.058;13.712;2024-03-08T07:18:12;29.80;;;16.63;;
22814;SDS011;11574;51.058;13.712;2024-03-08T07:23:15;34.30;;;18.30;;
22814;SDS011;11574;51.058;13.712;2024-03-08T07:28:39;32.37;;;18.93;;
22814;SDS011;11574;51.058;13.712;2024-03-08T07:33:41;34.43;;;19.17;;
22814;SDS011;11574;51.058;13.712;2024-03-08T07:38:43;31.23;;;19.07;;
22814;SDS011;11574;51.058;13.712;2024-03-08T07:43:48;31.93;;;19.40;;
22814;SDS011;11574;51.058;13.712;2024-03-08T07:48:50;27.63;;;18.47;;
22814;SDS011;11574;51.058;13.712;2024-03-08T07:53:53;29.87;;;18.53;;
22814;SDS011;11574;51.058;13.712;2024-03-08T07:58:57;33.40;;;19.30;;
22814;SDS011;11574;51.058;13.712;2024-03-08T08:03:59;29.33;;;18.30;;
22814;SDS011;11574;51.058;13.712;2024-03-08T08:09:04;31.00;;;18.63;;
22814;SDS011;11574;51.058;13.712;2024-03-08T08:14:12;31.60;;;20.60;;
22814;SDS011;11574;51.058;13.712;2024-03-08T08:19:15;30.60;;;19.23;;
22814;SDS011;11574;51.058;13.712;2024-03-08T08:24:18;26.67;;;19.20;;
22814;SDS011;11574;51.058;13.712;2024-03-08T08:29:23;24.75;;;17.60;;
22814;SDS011;11574;51.058;13.712;2024-03-08T08:34:25;29.02;;;18.98;;
22814;SDS011;11574;51.058;13.712;2024-03-08T08:39:27;31.25;;;18.35;;
22814;SDS011;11574;51.058;13.712;2024-03-08T08:44:31;25.47;;;17.27;;
22814;SDS011;11574;51.058;13.712;2024-03-08T08:49:35;26.65;;;17.42;;
22814;SDS011;11574;51.058;13.712;2024-03-08T08:54:37;31.45;;;19.10;;
22814;SDS011;11574;51.058;13.712;2024-03-08T08:59:41;27.03;;;17.50;;
22814;SDS011;11574;51.058;13.712;2024-03-08T09:04:43;25.40;;;17.80;;
22814;SDS011;11574;51.058;13.712;2024-03-08T09:09:45;24.60;;;17.47;;
22814;SDS011;11574;51.058;13.712;2024-03-08T09:14:49;28.40;;;17.97;;
22814;SDS011;11574;51.058;13.712;2024-03-08T09:19:51;26.30;;;17.00;;
22814;SDS011;11574;51.058;13.712;2024-03-08T09:24:54;25.53;;;17.53;;
22814;SDS011;11574;51.058;13.712;2024-03-08T09:29:58;25.30;;;16.60;;
22814;SDS011;11574;51.058;13.712;2024-03-08T09:35:01;24.53;;;16.60;;
22814;SDS011;11574;51.058;13.712;2024-03-08T09:40:03;24.23;;;15.93;;
22814;SDS011;11574;51.058;13.712;2024-03-08T09:45:10;28.10;;;15.90;;
22814;SDS011;11574;51.058;13.712;2024-03-08T09:50:15;25.27;;;16.07;;
22814;SDS011;11574;51.058;13.712;2024-03-08T09:55:17;23.37;;;15.30;;
22814;SDS011;11574;51.058;13.712;2024-03-08T10:00:23;24.27;;;15.10;;
22814;SDS011;11574;51.058;13.712;2024-03-08T10:05:25;23.60;;;14.60;;
22814;SDS011;11574;51.058;13.712;2024-03-08T10:10:28;24.30;;;15.37;;
22814;SDS011;11574;51.058;13.712;2024-03-08T10:15:32;26.97;;;15.17;;
22814;SDS011;11574;51.058;13.712;2024-03-08T10:20:35;20.83;;;13.60;;
22814;SDS011;11574;51.058;13.712;2024-03-08T10:25:37;23.03;;;14.53;;
22814;SDS011;11574;51.058;13.712;2024-03-08T10:30:46;22.73;;;15.03;;
22814;SDS011;11574;51.058;13.712;2024-03-08T10:35:48;23.10;;;15.17;;
22814;SDS011;11574;51.058;13.712;2024-03-08T10:40:51;26.00;;;15.40;;
22814;SDS011;11574;51.058;13.712;2024-03-08T10:45:59;24.53;;;15.50;;
22814;SDS011;11574;51.058;13.712;2024-03-08T10:51:05;25.10;;;14.70;;
22814;SDS011;11574;51.058;13.712;2024-03-08T10:56:07;25.07;;;14.63;;
22814;SDS011;11574;51.058;13.712;2024-03-08T11:01:11;25.07;;;15.20;;
22814;SDS011;11574;51.058;13.712;2024-03-08T11:06:15;25.07;;;15.07;;
22814;SDS011;11574;51.058;13.712;2024-03-08T11:11:25;24.60;;;14.17;;
22814;SDS011;11574;51.058;13.712;2024-03-08T11:16:38;22.90;;;13.63;;
22814;SDS011;11574;51.058;13.712;2024-03-08T11:21:42;24.00;;;13.43;;
22814;SDS011;11574;51.058;13.712;2024-03-08T11:26:45;24.07;;;13.00;;
22814;SDS011;11574;51.058;13.712;2024-03-08T11:31:49;25.47;;;13.93;;
22814;SDS011;11574;51.058;13.712;2024-03-08T11:36:52;23.93;;;13.30;;
22814;SDS011;11574;51.058;13.712;2024-03-08T11:41:56;21.97;;;13.53;;
22814;SDS011;11574;51.058;13.712;2024-03-08T11:47:00;21.60;;;12.83;;
22814;SDS011;11574;51.058;13.712;2024-03-08T11:52:04;23.83;;;13.27;;
22814;SDS011;11574;51.058;13.712;2024-03-08T11:57:07;22.83;;;12.53;;
22814;SDS011;11574;51.058;13.712;2024-03-08T12:02:11;21.10;;;12.87;;
22814;SDS011;11574;51.058;13.712;2024-03-08T12:07:14;20.67;;;12.10;;
22814;SDS011;11574;51.058;13.712;2024-03-08T12:12:19;19.70;;;11.30;;
22814;SDS011;11574;51.058;13.712;2024-03-08T12:17:22;20.63;;;11.93;;
22814;SDS011;11574;51.058;13.712;2024-03-08T12:22:25;15.93;;;9.53;;
22814;SDS011;11574;51.058;13.712;2024-03-08T12:27:27;17.70;;;10.47;;
22814;SDS011;11574;51.058;13.712;2024-03-08T12:32:31;18.80;;;10.80;;
22814;SDS011;11574;51.058;13.712;2024-03-08T12:37:33;17.33;;;10.43;;
22814;SDS011;11574;51.058;13.712;2024-03-08T12:42:35;18.77;;;9.40;;
22814;SDS011;11574;51.058;13.712;2024-03-08T12:47:40;18.33;;;10.03;;
22814;SDS011;11574;51.058;13.712;2024-03-08T12:52:43;23.50;;;10.73;;
22814;SDS011;11574;51.058;13.712;2024-03-08T12:57:45;14.27;;;9.57;;
22814;SDS011;11574;51.058;13.712;2024-03-08T13:02:50;16.60;;;9.37;;
22814;SDS011;11574;51.058;13.712;2024-03-08T13:07:52;19.27;;;10.43;;
22814;SDS011;11574;51.058;13.712;2024-03-08T13:12:55;13.97;;;9.47;;
22814;SDS011;11574;51.058;13.712;2024-03-08T13:17:58;18.00;;;10.27;;
22814;SDS011;11574;51.058;13.712;2024-03-08T13:23:01;17.33;;;9.93;;
22814;SDS011;11574;51.058;13.712;2024-03-08T13:28:03;17.00;;;10.00;;
22814;SDS011;11574;51.058;13.712;2024-03-08T13:33:08;16.37;;;9.50;;
22814;SDS011;11574;51.058;13.712;2024-03-08T13:38:10;15.53;;;9.77;;
22814;SDS011;11574;51.058;13.712;2024-03-08T13:43:13;14.67;;;9.57;;
22814;SDS011;11574;51.058;13.712;2024-03-08T13:48:16;18.77;;;9.93;;
22814;SDS011;11574;51.058;13.712;2024-03-08T13:53:19;14.73;;;9.70;;
22814;SDS011;11574;51.058;13.712;2024-03-08T13:58:21;18.40;;;9.33;;
22814;SDS011;11574;51.058;13.712;2024-03-08T14:03:25;15.23;;;8.93;;
22814;SDS011;11574;51.058;13.712;2024-03-08T14:08:27;14.33;;;9.53;;
22814;SDS011;11574;51.058;13.712;2024-03-08T14:13:30;16.67;;;8.60;;
22814;SDS011;11574;51.058;13.712;2024-03-08T14:18:33;17.20;;;9.17;;
22814;SDS011;11574;51.058;13.712;2024-03-08T14:23:36;13.63;;;8.47;;
22814;SDS011;11574;51.058;13.712;2024-03-08T14:28:38;13.67;;;8.70;;
22814;SDS011;11574;51.058;13.712;2024-03-08T14:33:42;17.73;;;9.00;;
22814;SDS011;11574;51.058;13.712;2024-03-08T14:38:49;12.57;;;7.07;;
22814;SDS011;11574;51.058;13.712;2024-03-08T14:43:51;12.80;;;7.60;;
22814;SDS011;11574;51.058;13.712;2024-03-08T14:48:55;12.93;;;7.70;;
22814;SDS011;11574;51.058;13.712;2024-03-08T14:53:57;12.43;;;7.20;;
22814;SDS011;11574;51.058;13.712;2024-03-08T14:58:59;10.83;;;6.80;;
22814;SDS011;11574;51.058;13.712;2024-03-08T15:04:03;11.43;;;7.20;;
22814;SDS011;11574;51.058;13.712;2024-03-08T15:09:08;11.20;;;6.97;;
22814;SDS011;11574;51.058;13.712;2024-03-08T15:14:17;15.20;;;7.20;;
22814;SDS011;11574;51.058;13.712;2024-03-08T15:19:21;10.03;;;6.33;;
22814;SDS011;11574;51.058;13.712;2024-03-08T15:24:25;10.37;;;6.47;;
22814;SDS011;11574;51.058;13.712;2024-03-08T15:29:28;15.07;;;7.00;;
22814;SDS011;11574;51.058;13.712;2024-03-08T15:34:33;10.73;;;7.00;;
22814;SDS011;11574;51.058;13.712;2024-03-08T15:39:38;11.90;;;7.60;;
22814;SDS011;11574;51.058;13.712;2024-03-08T15:44:41;10.53;;;6.97;;
22814;SDS011;11574;51.058;13.712;2024-03-08T15:49:45;16.70;;;6.70;;
22814;SDS011;11574;51.058;13.712;2024-03-08T15:54:48;13.33;;;6.40;;
22814;SDS011;11574;51.058;13.712;2024-03-08T15:59:50;13.07;;;6.90;;
22814;SDS011;11574;51.058;13.712;2024-03-08T16:04:53;12.97;;;6.10;;
22814;SDS011;11574;51.058;13.712;2024-03-08T16:09:56;11.43;;;7.30;;
22814;SDS011;11574;51.058;13.712;2024-03-08T16:14:58;14.87;;;8.13;;
22814;SDS011;11574;51.058;13.712;2024-03-08T16:20:01;13.57;;;8.00;;
22814;SDS011;11574;51.058;13.712;2024-03-08T16:25:11;14.50;;;7.97;;
22814;SDS011;11574;51.058;13.712;2024-03-08T16:30:13;14.63;;;9.20;;
22814;SDS011;11574;51.058;13.712;2024-03-08T16:35:17;16.60;;;9.23;;
22814;SDS011;11574;51.058;13.712;2024-03-08T16:40:20;15.50;;;9.37;;
22814;SDS011;11574;51.058;13.712;2024-03-08T16:45:23;15.07;;;9.30;;
22814;SDS011;11574;51.058;13.712;2024-03-08T16:50:28;17.10;;;9.87;;
22814;SDS011;11574;51.058;13.712;2024-03-08T16:55:31;17.93;;;9.23;;
22814;SDS011;11574;51.058;13.712;2024-03-08T17:00:34;17.20;;;10.03;;
22814;SDS011;11574;51.058;13.712;2024-03-08T17:05:38;16.43;;;9.23;;
22814;SDS011;11574;51.058;13.712;2024-03-08T17:10:44;18.20;;;9.00;;
22814;SDS011;11574;51.058;13.712;2024-03-08T17:15:46;17.87;;;7.97;;
22814;SDS011;11574;51.058;13.712;2024-03-08T17:20:50;13.53;;;7.40;;
22814;SDS011;11574;51.058;13.712;2024-03-08T17:25:53;16.27;;;8.43;;
22814;SDS011;11574;51.058;13.712;2024-03-08T17:30:57;15.90;;;8.70;;
22814;SDS011;11574;51.058;13.712;2024-03-08T17:36:01;16.33;;;8.43;;
22814;SDS011;11574;51.058;13.712;2024-03-08T17:41:06;13.97;;;8.03;;
22814;SDS011;11574;51.058;13.712;2024-03-08T17:46:09;14.87;;;7.53;;
22814;SDS011;11574;51.058;13.712;2024-03-08T17:51:16;14.70;;;7.57;;
22814;SDS011;11574;51.058;13.712;2024-03-08T17:56:19;13.17;;;8.03;;
22814;SDS011;11574;51.058;13.712;2024-03-08T18:01:21;11.73;;;6.77;;
22814;SDS011;11574;51.058;13.712;2024-03-08T18:06:24;12.00;;;6.97;;
22814;SDS011;11574;51.058;13.712;2024-03-08T18:11:26;15.37;;;6.33;;
22814;SDS011;11574;51.058;13.712;2024-03-08T18:16:29;14.23;;;6.90;;
22814;SDS011;11574;51.058;13.712;2024-03-08T18:21:35;26.40;;;14.90;;
22814;SDS011;11574;51.058;13.712;2024-03-08T18:26:37;38.07;;;19.60;;
22814;SDS011;11574;51.058;13.712;2024-03-08T18:31:41;36.23;;;21.63;;
22814;SDS011;11574;51.058;13.712;2024-03-08T18:36:47;49.90;;;25.30;;
22814;SDS011;11574;51.058;13.712;2024-03-08T18:41:50;47.80;;;24.60;;
22814;SDS011;11574;51.058;13.712;2024-03-08T18:46:53;47.40;;;25.30;;
22814;SDS011;11574;51.058;13.712;2024-03-08T18:51:58;45.10;;;26.40;;
22814;SDS011;11574;51.058;13.712;2024-03-08T18:57:01;52.00;;;26.63;;
22814;SDS011;11574;51.058;13.712;2024-03-08T19:02:05;47.57;;;25.27;;
22814;SDS011;11574;51.058;13.712;2024-03-08T19:07:08;48.93;;;25.70;;
22814;SDS011;11574;51.058;13.712;2024-03-08T19:12:11;50.67;;;26.67;;
22814;SDS011;11574;51.058;13.712;2024-03-08T19:17:13;50.17;;;27.93;;
22814;SDS011;11574;51.058;13.712;2024-03-08T19:22:16;46.23;;;25.50;;
22814;SDS011;11574;51.058;13.712;2024-03-08T19:27:19;51.77;;;28.03;;
22814;SDS011;11574;51.058;13.712;2024-03-08T19:32:22;53.40;;;27.90;;
22814;SDS011;11574;51.058;13.712;2024-03-08T19:37:27;50.37;;;25.70;;
22814;SDS011;11574;51.058;13.712;2024-03-08T19:42:29;38.23;;;19.73;;
22814;SDS011;11574;51.058;13.712;2024-03-08T19:47:31;36.60;;;20.73;;
22814;SDS011;11574;51.058;13.712;2024-03-08T19:52:35;31.50;;;15.63;;
22814;SDS011;11574;51.058;13.712;2024-03-08T19:57:38;22.80;;;11.93;;
22814;SDS011;11574;51.058;13.712;2024-03-08T20:02:41;19.03;;;10.30;;
22814;SDS011;11574;51.058;13.712;2024-03-08T20:07:45;17.33;;;9.20;;
22814;SDS011;11574;51.058;13.712;2024-03-08T20:12:49;14.17;;;8.03;;
22814;SDS011;11574;51.058;13.712;2024-03-08T20:17:53;14.63;;;8.47;;
22814;SDS011;11574;51.058;13.712;2024-03-08T20:22:58;17.30;;;8.40;;
22814;SDS011;11574;51.058;13.712;2024-03-08T20:28:01;16.23;;;8.50;;
22814;SDS011;11574;51.058;13.712;2024-03-08T20:33:05;16.43;;;8.20;;
22814;SDS011;11574;51.058;13.712;2024-03-08T20:38:10;15.43;;;8.43;;
22814;SDS011;11574;51.058;13.712;2024-03-08T20:43:20;13.23;;;6.83;;
22814;SDS011;11574;51.058;13.712;2024-03-08T20:48:23;17.17;;;8.23;;
22814;SDS011;11574;51.058;13.712;2024-03-08T20:53:27;16.60;;;8.70;;
22814;SDS011;11574;51.058;13.712;2024-03-08T20:58:31;16.27;;;8.00;;
22814;SDS011;11574;51.058;13.712;2024-03-08T21:03:33;16.40;;;8.17;;
22814;SDS011;11574;51.058;13.712;2024-03-08T21:08:38;15.47;;;8.30;;
22814;SDS011;11574;51.058;13.712;2024-03-08T21:13:41;17.90;;;9.37;;
22814;SDS011;11574;51.058;13.712;2024-03-08T21:18:43;15.90;;;8.87;;
22814;SDS011;11574;51.058;13.712;2024-03-08T21:23:48;18.37;;;9.80;;
22814;SDS011;11574;51.058;13.712;2024-03-08T21:28:50;20.87;;;9.60;;
22814;SDS011;11574;51.058;13.712;2024-03-08T21:33:52;21.80;;;9.97;;
22814;SDS011;11574;51.058;13.712;2024-03-08T21:38:56;18.73;;;9.60;;
22814;SDS011;11574;51.058;13.712;2024-03-08T21:43:58;20.20;;;10.23;;
22814;SDS011;11574;51.058;13.712;2024-03-08T21:49:00;18.53;;;9.80;;
22814;SDS011;11574;51.058;13.712;2024-03-08T21:54:05;19.73;;;10.10;;
22814;SDS011;11574;51.058;13.712;2024-03-08T21:59:07;19.43;;;10.40;;
22814;SDS011;11574;51.058;13.712;2024-03-08T22:04:09;21.10;;;10.33;;
22814;SDS011;11574;51.058;13.712;2024-03-08T22:09:13;18.27;;;9.70;;
22814;SDS011;11574;51.058;13.712;2024-03-08T22:14:16;19.13;;;9.60;;
22814;SDS011;11574;51.058;13.712;2024-03-08T22:19:18;19.90;;;9.97;;
22814;SDS011;11574;51.058;13.712;2024-03-08T22:24:21;20.77;;;9.93;;
22814;SDS011;11574;51.058;13.712;2024-03-08T22:29:24;124.73;;;39.80;;
22814;SDS011;11574;51.058;13.712;2024-03-08T22:34:26;27.77;;;12.67;;
22814;SDS011;11574;51.058;13.712;2024-03-08T22:39:30;35.23;;;16.03;;
22814;SDS011;11574;51.058;13.712;2024-03-08T22:44:34;27.53;;;12.37;;
22814;SDS011;11574;51.058;13.712;2024-03-08T22:49:36;24.43;;;10.67;;
22814;SDS011;11574;51.058;13.712;2024-03-08T22:54:39;20.63;;;9.17;;
22814;SDS011;11574;51.058;13.712;2024-03-08T22:59:41;25.10;;;9.83;;
22814;SDS011;11574;51.058;13.712;2024-03-08T23:04:46;22.00;;;9.27;;
22814;SDS011;11574;51.058;13.712;2024-03-08T23:09:50;23.03;;;10.27;;
22814;SDS011;11574;51.058;13.712;2024-03-08T23:14:52;23.40;;;10.47;;
22814;SDS011;11574;51.058;13.712;2024-03-08T23:19:54;22.60;;;10.83;;
22814;SDS011;11574;51.058;13.712;2024-03-08T23:24:58;27.83;;;12.10;;
22814;SDS011;11574;51.058;13.712;2024-03-08T23:30:04;26.47;;;11.77;;
22814;SDS011;11574;51.058;13.712;2024-03-08T23:35:10;25.37;;;12.77;;
22814;SDS011;11574;51.058;13.712;2024-03-08T23:40:15;21.20;;;10.13;;
22814;SDS011;11574;51.058;13.712;2024-03-08T23:45:19;19.83;;;10.10;;
22814;SDS011;11574;51.058;13.712;2024-03-08T23:50:22;21.20;;;10.43;;
22814;SDS011;11574;51.058;13.712;2024-03-08T23:55:28;16.73;;;9.23;;
